createdAt,value
2022-12-29T00:00:05.259Z,1000.53
2022-12-29T00:01:05.300Z,1000.66
2022-12-29T00:02:05.239Z,1000.63
2022-12-29T00:03:05.295Z,1000.60
2022-12-29T00:04:07.726Z,1000.59
2022-12-29T00:05:06.197Z,1000.56
2022-12-29T00:06:05.179Z,1000.41
2022-12-29T00:07:05.176Z,1000.46
2022-12-29T00:08:05.165Z,1000.36
2022-12-29T00:09:05.155Z,1000.38
2022-12-29T00:10:05.137Z,1000.36
2022-12-29T00:11:05.103Z,1000.34
2022-12-29T00:12:05.112Z,1000.31
2022-12-29T00:13:05.092Z,1000.31
2022-12-29T00:14:05.060Z,1000.33
2022-12-29T00:15:05.055Z,1000.26
2022-12-29T00:16:05.069Z,1000.23
2022-12-29T00:17:05.059Z,1000.20
2022-12-29T00:18:05.009Z,1000.19
2022-12-29T00:19:05.003Z,1000.22
2022-12-29T00:20:04.987Z,1000.24
2022-12-29T00:21:04.966Z,1000.17
2022-12-29T00:22:04.974Z,1000.21
2022-12-29T00:23:04.982Z,1000.22
2022-12-29T00:24:04.927Z,1000.18
2022-12-29T00:25:04.918Z,1000.14
2022-12-29T00:26:04.896Z,1000.16
2022-12-29T00:27:04.914Z,1000.14
2022-12-29T00:28:07.212Z,1000.22
2022-12-29T00:29:04.868Z,1000.16
2022-12-29T00:30:05.005Z,1000.15
2022-12-29T00:31:04.874Z,1000.13
2022-12-29T00:32:04.847Z,1000.09
2022-12-29T00:33:04.818Z,1000.05
2022-12-29T00:34:04.792Z,1000.07
2022-12-29T00:35:04.823Z,1000.11
2022-12-29T00:36:04.755Z,1000.04
2022-12-29T00:37:04.825Z,1000.05
2022-12-29T00:38:04.738Z,1000.03
2022-12-29T00:39:04.744Z,999.98
2022-12-29T00:40:04.726Z,1000.05
2022-12-29T00:41:04.701Z,1000.03
2022-12-29T00:42:04.719Z,1000.10
2022-12-29T00:43:04.683Z,1000.08
2022-12-29T00:44:04.669Z,1000.04
2022-12-29T00:45:04.641Z,1000.07
2022-12-29T00:46:04.709Z,1000.05
2022-12-29T00:47:04.702Z,999.95
2022-12-29T00:48:04.616Z,999.91
2022-12-29T00:49:04.599Z,999.97
2022-12-29T00:50:04.576Z,999.96
2022-12-29T00:51:04.599Z,999.98
2022-12-29T00:52:04.573Z,1000.00
2022-12-29T00:53:04.537Z,999.86
2022-12-29T00:54:04.519Z,999.80
2022-12-29T00:55:04.509Z,999.77
2022-12-29T00:56:04.506Z,999.85
2022-12-29T00:57:04.506Z,999.84
2022-12-29T00:58:04.501Z,999.91
2022-12-29T00:59:04.448Z,999.87
2022-12-29T01:00:04.475Z,999.83
2022-12-29T01:01:04.489Z,999.85
2022-12-29T01:02:04.510Z,999.83
2022-12-29T01:03:04.465Z,999.84
2022-12-29T01:04:04.878Z,999.82
2022-12-29T01:05:04.372Z,999.73
2022-12-29T01:06:04.351Z,999.72
2022-12-29T01:07:04.364Z,999.82
2022-12-29T01:08:04.338Z,999.78
2022-12-29T01:09:04.355Z,999.79
2022-12-29T01:10:04.312Z,999.80
2022-12-29T01:11:04.294Z,999.75
2022-12-29T01:12:04.293Z,999.74
2022-12-29T01:13:04.265Z,999.75
2022-12-29T01:14:04.251Z,999.74
2022-12-29T01:15:04.231Z,999.72
2022-12-29T01:16:04.233Z,999.78
2022-12-29T01:17:04.234Z,999.84
2022-12-29T01:18:04.216Z,999.86
2022-12-29T01:19:04.192Z,999.87
2022-12-29T01:20:04.181Z,999.86
2022-12-29T01:21:04.154Z,999.81
2022-12-29T01:22:04.159Z,999.81
2022-12-29T01:23:04.125Z,999.85
2022-12-29T01:24:04.126Z,999.81
2022-12-29T01:25:04.121Z,999.83
2022-12-29T01:26:04.089Z,999.70
2022-12-29T01:27:04.093Z,999.71
2022-12-29T01:28:04.074Z,999.85
2022-12-29T01:29:04.044Z,999.79
2022-12-29T01:30:04.034Z,999.73
2022-12-29T01:31:04.219Z,999.74
2022-12-29T01:32:04.107Z,999.78
2022-12-29T01:33:04.009Z,999.80
2022-12-29T01:34:03.992Z,999.78
2022-12-29T01:35:03.975Z,999.80
2022-12-29T01:36:03.964Z,999.81
2022-12-29T01:37:03.962Z,999.78
2022-12-29T01:38:03.922Z,999.78
2022-12-29T01:39:03.917Z,999.82
2022-12-29T01:40:03.902Z,999.72
2022-12-29T01:41:03.906Z,999.84
2022-12-29T01:42:03.892Z,999.77
2022-12-29T01:43:03.879Z,999.71
2022-12-29T01:44:03.848Z,999.75
2022-12-29T01:45:03.846Z,999.75
2022-12-29T01:46:03.893Z,999.82
2022-12-29T01:47:03.830Z,999.71
2022-12-29T01:48:03.785Z,999.74
2022-12-29T01:49:03.778Z,999.61
2022-12-29T01:50:03.786Z,999.69
2022-12-29T01:51:03.769Z,999.66
2022-12-29T01:52:03.759Z,999.54
2022-12-29T01:53:03.718Z,999.59
2022-12-29T01:54:03.708Z,999.62
2022-12-29T01:55:03.696Z,999.58
2022-12-29T01:56:03.697Z,999.49
2022-12-29T01:57:03.693Z,999.48
2022-12-29T01:58:03.648Z,999.33
2022-12-29T01:59:03.646Z,999.49
2022-12-29T02:00:03.621Z,999.45
2022-12-29T02:01:03.686Z,999.55
2022-12-29T02:02:03.623Z,999.52
2022-12-29T02:03:03.716Z,999.58
2022-12-29T02:04:03.580Z,999.56
2022-12-29T02:05:04.826Z,999.51
2022-12-29T02:06:03.557Z,999.46
2022-12-29T02:07:03.529Z,999.43
2022-12-29T02:08:03.509Z,999.47
2022-12-29T02:09:03.508Z,999.54
2022-12-29T02:10:03.496Z,999.52
2022-12-29T02:11:03.517Z,999.56
2022-12-29T02:12:03.479Z,999.55
2022-12-29T02:13:03.466Z,999.52
2022-12-29T02:14:03.996Z,999.54
2022-12-29T02:15:03.425Z,999.55
2022-12-29T02:16:03.443Z,999.61
2022-12-29T02:17:03.392Z,999.51
2022-12-29T02:18:03.440Z,999.50
2022-12-29T02:19:03.372Z,999.51
2022-12-29T02:20:03.349Z,999.52
2022-12-29T02:21:03.391Z,999.50
2022-12-29T02:22:03.331Z,999.41
2022-12-29T02:23:03.310Z,999.40
2022-12-29T02:24:03.316Z,999.47
2022-12-29T02:25:03.293Z,999.42
2022-12-29T02:26:03.326Z,999.41
2022-12-29T02:27:03.263Z,999.44
2022-12-29T02:28:03.242Z,999.50
2022-12-29T02:29:03.233Z,999.40
2022-12-29T02:30:03.208Z,999.30
2022-12-29T02:31:03.227Z,999.42
2022-12-29T02:32:03.319Z,999.23
2022-12-29T02:33:03.191Z,999.33
2022-12-29T02:34:03.178Z,999.35
2022-12-29T02:35:03.144Z,999.29
2022-12-29T02:36:03.168Z,999.36
2022-12-29T02:37:03.124Z,999.34
2022-12-29T02:38:03.104Z,999.30
2022-12-29T02:39:03.128Z,999.27
2022-12-29T02:40:03.082Z,999.37
2022-12-29T02:41:03.104Z,999.30
2022-12-29T02:42:03.058Z,999.23
2022-12-29T02:43:03.030Z,999.23
2022-12-29T02:44:03.033Z,999.24
2022-12-29T02:45:03.045Z,999.27
2022-12-29T02:46:03.060Z,999.19
2022-12-29T02:47:02.993Z,999.27
2022-12-29T02:48:02.977Z,999.19
2022-12-29T02:49:02.959Z,999.23
2022-12-29T02:50:02.940Z,999.18
2022-12-29T02:51:02.988Z,999.11
2022-12-29T02:52:02.924Z,999.12
2022-12-29T02:53:02.914Z,999.04
2022-12-29T02:54:02.908Z,999.11
2022-12-29T02:55:02.874Z,999.04
2022-12-29T02:56:02.892Z,999.03
2022-12-29T02:57:02.848Z,999.05
2022-12-29T02:58:02.834Z,999.05
2022-12-29T02:59:02.825Z,999.01
2022-12-29T03:00:02.815Z,998.96
2022-12-29T03:01:02.870Z,998.95
2022-12-29T03:02:03.054Z,998.97
2022-12-29T03:03:02.933Z,999.00
2022-12-29T03:04:02.761Z,998.97
2022-12-29T03:05:02.725Z,998.94
2022-12-29T03:06:02.746Z,998.90
2022-12-29T03:07:02.707Z,998.86
2022-12-29T03:08:02.698Z,998.81
2022-12-29T03:09:02.682Z,998.79
2022-12-29T03:10:02.674Z,998.83
2022-12-29T03:11:02.687Z,998.92
2022-12-29T03:12:02.643Z,998.94
2022-12-29T03:13:02.840Z,998.95
2022-12-29T03:14:02.615Z,998.89
2022-12-29T03:15:02.617Z,998.88
2022-12-29T03:16:02.606Z,998.91
2022-12-29T03:17:02.608Z,998.85
2022-12-29T03:18:02.564Z,998.83
2022-12-29T03:19:02.568Z,998.80
2022-12-29T03:20:02.567Z,998.83
2022-12-29T03:21:02.546Z,998.83
2022-12-29T03:22:02.509Z,998.77
2022-12-29T03:23:02.515Z,998.80
2022-12-29T03:24:02.488Z,998.73
2022-12-29T03:25:02.470Z,998.73
2022-12-29T03:26:02.500Z,998.70
2022-12-29T03:27:02.440Z,998.71
2022-12-29T03:28:02.466Z,998.69
2022-12-29T03:29:02.441Z,998.68
2022-12-29T03:30:02.412Z,998.74
2022-12-29T03:31:02.458Z,998.76
2022-12-29T03:32:02.405Z,998.63
2022-12-29T03:33:02.356Z,998.70
2022-12-29T03:34:02.372Z,998.74
2022-12-29T03:35:02.346Z,998.69
2022-12-29T03:36:02.330Z,998.71
2022-12-29T03:37:02.329Z,998.65
2022-12-29T03:38:02.327Z,998.68
2022-12-29T03:39:02.287Z,998.68
2022-12-29T03:40:02.259Z,998.67
2022-12-29T03:41:02.256Z,998.70
2022-12-29T03:42:02.262Z,998.74
2022-12-29T03:43:02.235Z,998.52
2022-12-29T03:44:02.226Z,998.65
2022-12-29T03:45:02.228Z,998.68
2022-12-29T03:46:02.228Z,998.62
2022-12-29T03:47:02.193Z,998.66
2022-12-29T03:48:02.167Z,998.65
2022-12-29T03:49:02.141Z,998.65
2022-12-29T03:50:02.142Z,998.71
2022-12-29T03:51:02.134Z,998.60
2022-12-29T03:52:02.119Z,998.55
2022-12-29T03:53:02.105Z,998.67
2022-12-29T03:54:02.086Z,998.56
2022-12-29T03:55:02.067Z,998.52
2022-12-29T03:56:02.073Z,998.50
2022-12-29T03:57:02.045Z,998.43
2022-12-29T03:58:02.027Z,998.47
2022-12-29T03:59:02.024Z,998.42
2022-12-29T04:00:01.991Z,998.38
2022-12-29T04:01:02.051Z,998.37
2022-12-29T04:02:02.059Z,998.33
2022-12-29T04:03:02.061Z,998.35
2022-12-29T04:04:01.941Z,998.25
2022-12-29T04:05:01.917Z,998.25
2022-12-29T04:06:01.921Z,998.30
2022-12-29T04:07:01.916Z,998.35
2022-12-29T04:08:01.908Z,998.31
2022-12-29T04:09:01.871Z,998.42
2022-12-29T04:10:01.883Z,998.35
2022-12-29T04:11:01.837Z,998.38
2022-12-29T04:12:01.846Z,998.43
2022-12-29T04:13:01.869Z,998.45
2022-12-29T04:14:01.803Z,998.42
2022-12-29T04:15:01.812Z,998.47
2022-12-29T04:16:01.926Z,998.42
2022-12-29T04:17:01.796Z,998.50
2022-12-29T04:18:01.758Z,998.62
2022-12-29T04:19:01.740Z,998.47
2022-12-29T04:20:01.731Z,998.39
2022-12-29T04:21:01.724Z,998.55
2022-12-29T04:22:01.715Z,998.60
2022-12-29T04:23:01.689Z,998.55
2022-12-29T04:24:01.681Z,998.59
2022-12-29T04:25:01.658Z,998.52
2022-12-29T04:26:01.656Z,998.57
2022-12-29T04:27:01.632Z,998.51
2022-12-29T04:28:01.643Z,998.55
2022-12-29T04:29:01.594Z,998.60
2022-12-29T04:30:01.594Z,998.62
2022-12-29T04:31:01.649Z,998.52
2022-12-29T04:32:01.566Z,998.56
2022-12-29T04:33:01.562Z,998.57
2022-12-29T04:34:01.560Z,998.40
2022-12-29T04:35:01.517Z,998.49
2022-12-29T04:36:01.527Z,998.43
2022-12-29T04:37:01.481Z,998.43
2022-12-29T04:38:01.489Z,998.45
2022-12-29T04:39:01.510Z,998.44
2022-12-29T04:40:01.454Z,998.37
2022-12-29T04:41:01.515Z,998.41
2022-12-29T04:42:01.425Z,998.48
2022-12-29T04:43:01.416Z,998.57
2022-12-29T04:44:01.393Z,998.51
2022-12-29T04:45:01.396Z,998.48
2022-12-29T04:46:01.510Z,998.59
2022-12-29T04:47:01.352Z,998.48
2022-12-29T04:48:01.358Z,998.61
2022-12-29T04:49:01.328Z,998.57
2022-12-29T04:50:01.326Z,998.53
2022-12-29T04:51:01.344Z,998.68
2022-12-29T04:52:01.306Z,998.62
2022-12-29T04:53:01.266Z,998.63
2022-12-29T04:54:01.264Z,998.60
2022-12-29T04:55:01.251Z,998.49
2022-12-29T04:56:01.267Z,998.79
2022-12-29T04:57:01.247Z,998.67
2022-12-29T04:58:01.223Z,998.65
2022-12-29T04:59:01.228Z,998.70
2022-12-29T05:00:01.208Z,998.67
2022-12-29T05:01:01.183Z,998.67
2022-12-29T05:02:01.281Z,998.68
2022-12-29T05:03:01.254Z,998.66
2022-12-29T05:04:01.181Z,998.75
2022-12-29T05:05:01.106Z,998.67
2022-12-29T05:06:01.123Z,998.70
2022-12-29T05:07:01.094Z,998.67
2022-12-29T05:08:01.092Z,998.64
2022-12-29T05:09:01.052Z,998.55
2022-12-29T05:10:01.049Z,998.69
2022-12-29T05:11:01.043Z,998.74
2022-12-29T05:12:01.034Z,998.72
2022-12-29T05:13:01.035Z,998.70
2022-12-29T05:14:00.988Z,998.74
2022-12-29T05:15:00.975Z,998.67
2022-12-29T05:16:01.040Z,998.73
2022-12-29T05:17:00.996Z,998.71
2022-12-29T05:18:00.951Z,998.77
2022-12-29T05:19:00.933Z,998.74
2022-12-29T05:20:00.930Z,998.81
2022-12-29T05:21:00.925Z,998.74
2022-12-29T05:22:00.909Z,998.87
2022-12-29T05:23:00.862Z,998.79
2022-12-29T05:24:00.876Z,998.76
2022-12-29T05:25:00.885Z,998.82
2022-12-29T05:26:00.835Z,998.80
2022-12-29T05:27:00.837Z,998.88
2022-12-29T05:28:00.795Z,998.76
2022-12-29T05:29:00.804Z,998.75
2022-12-29T05:30:00.788Z,998.64
2022-12-29T05:31:00.794Z,998.85
2022-12-29T05:32:00.765Z,998.73
2022-12-29T05:33:00.733Z,998.87
2022-12-29T05:34:00.725Z,998.79
2022-12-29T05:35:00.729Z,998.83
2022-12-29T05:36:00.691Z,998.80
2022-12-29T05:37:00.699Z,998.81
2022-12-29T05:38:00.663Z,998.74
2022-12-29T05:39:00.648Z,998.78
2022-12-29T05:40:00.630Z,998.85
2022-12-29T05:41:00.635Z,998.84
2022-12-29T05:42:00.657Z,998.77
2022-12-29T05:43:00.604Z,998.69
2022-12-29T05:44:00.609Z,998.66
2022-12-29T05:45:00.576Z,998.70
2022-12-29T05:46:00.555Z,998.69
2022-12-29T05:47:00.690Z,998.70
2022-12-29T05:48:09.347Z,998.74
2022-12-29T05:49:02.168Z,998.70
2022-12-29T05:50:00.501Z,998.77
2022-12-29T05:51:00.486Z,998.93
2022-12-29T05:52:00.519Z,998.84
2022-12-29T05:53:00.445Z,998.82
2022-12-29T05:54:00.451Z,998.80
2022-12-29T05:55:00.428Z,998.86
2022-12-29T05:56:00.430Z,998.89
2022-12-29T05:57:00.419Z,998.84
2022-12-29T05:58:00.409Z,998.86
2022-12-29T05:59:00.394Z,998.96
2022-12-29T06:00:00.418Z,999.01
2022-12-29T06:01:00.386Z,999.02
2022-12-29T06:02:00.526Z,999.12
2022-12-29T06:03:00.471Z,999.09
2022-12-29T06:04:00.549Z,999.20
2022-12-29T06:05:00.292Z,999.22
2022-12-29T06:06:00.321Z,999.30
2022-12-29T06:07:00.280Z,999.26
2022-12-29T06:08:00.282Z,999.22
2022-12-29T06:09:00.240Z,999.28
2022-12-29T06:10:00.236Z,999.23
2022-12-29T06:11:00.243Z,999.24
2022-12-29T06:12:00.225Z,999.22
2022-12-29T06:13:00.206Z,999.25
2022-12-29T06:14:00.214Z,999.21
2022-12-29T06:15:00.194Z,999.17
2022-12-29T06:16:00.242Z,999.26
2022-12-29T06:17:00.174Z,999.28
2022-12-29T06:18:00.151Z,999.25
2022-12-29T06:19:00.129Z,999.22
2022-12-29T06:20:00.102Z,999.16
2022-12-29T06:21:00.110Z,999.20
2022-12-29T06:22:00.132Z,999.18
2022-12-29T06:23:00.053Z,999.24
2022-12-29T06:24:00.062Z,999.23
2022-12-29T06:25:04.551Z,999.31
2022-12-29T06:26:01.046Z,999.28
2022-12-29T06:26:59.994Z,999.36
2022-12-29T06:27:59.983Z,999.39
2022-12-29T06:28:59.976Z,999.41
2022-12-29T06:30:00.009Z,999.49
2022-12-29T06:30:59.971Z,999.50
2022-12-29T06:32:00.080Z,999.53
2022-12-29T06:32:59.931Z,999.58
2022-12-29T06:34:04.944Z,999.59
2022-12-29T06:35:00.887Z,999.60
2022-12-29T06:35:59.897Z,999.62
2022-12-29T06:36:59.880Z,999.61
2022-12-29T06:37:59.882Z,999.63
2022-12-29T06:38:59.837Z,999.65
2022-12-29T06:39:59.992Z,999.70
2022-12-29T06:40:59.830Z,999.64
2022-12-29T06:41:59.789Z,999.63
2022-12-29T06:42:59.779Z,999.65
2022-12-29T06:43:59.826Z,999.68
2022-12-29T06:44:59.766Z,999.63
2022-12-29T06:45:59.821Z,999.69
2022-12-29T06:46:59.733Z,999.67
2022-12-29T06:47:59.716Z,999.64
2022-12-29T06:48:59.712Z,999.54
2022-12-29T06:49:59.680Z,999.58
2022-12-29T06:50:59.693Z,999.59
2022-12-29T06:51:59.654Z,999.66
2022-12-29T06:52:59.656Z,999.62
2022-12-29T06:53:59.631Z,999.64
2022-12-29T06:54:59.621Z,999.61
2022-12-29T06:55:59.618Z,999.68
2022-12-29T06:56:59.603Z,999.65
2022-12-29T06:57:59.600Z,999.72
2022-12-29T06:58:59.561Z,999.73
2022-12-29T06:59:59.573Z,999.64
2022-12-29T07:00:59.622Z,999.67
2022-12-29T07:01:59.633Z,999.63
2022-12-29T07:02:59.705Z,999.71
2022-12-29T07:03:59.486Z,999.74
2022-12-29T07:04:59.480Z,999.65
2022-12-29T07:05:59.528Z,999.73
2022-12-29T07:06:59.452Z,999.83
2022-12-29T07:07:59.465Z,999.76
2022-12-29T07:08:59.431Z,999.73
2022-12-29T07:09:59.428Z,999.79
2022-12-29T07:10:59.440Z,999.76
2022-12-29T07:11:59.394Z,999.79
2022-12-29T07:12:59.381Z,999.75
2022-12-29T07:14:02.538Z,999.75
2022-12-29T07:14:59.341Z,999.75
2022-12-29T07:15:59.340Z,999.77
2022-12-29T07:16:59.388Z,999.87
2022-12-29T07:17:59.337Z,999.76
2022-12-29T07:18:59.305Z,999.80
2022-12-29T07:19:59.271Z,999.77
2022-12-29T07:20:59.273Z,999.90
2022-12-29T07:21:59.277Z,999.86
2022-12-29T07:22:59.280Z,999.84
2022-12-29T07:23:59.222Z,999.87
2022-12-29T07:24:59.215Z,999.89
2022-12-29T07:25:59.229Z,999.96
2022-12-29T07:26:59.199Z,1000.06
2022-12-29T07:27:59.173Z,999.97
2022-12-29T07:28:59.164Z,1000.02
2022-12-29T07:29:59.168Z,1000.00
2022-12-29T07:30:59.151Z,999.99
2022-12-29T07:31:59.228Z,999.99
2022-12-29T07:32:59.135Z,1000.01
2022-12-29T07:33:59.094Z,1000.02
2022-12-29T07:34:59.078Z,1000.00
2022-12-29T07:35:59.094Z,1000.09
2022-12-29T07:36:59.046Z,1000.16
2022-12-29T07:37:59.037Z,1000.16
2022-12-29T07:38:59.035Z,1000.14
2022-12-29T07:39:59.038Z,1000.10
2022-12-29T07:40:59.066Z,1000.10
2022-12-29T07:42:04.498Z,1000.11
2022-12-29T07:42:59.968Z,1000.19
2022-12-29T07:43:58.956Z,1000.19
2022-12-29T07:44:58.939Z,1000.22
2022-12-29T07:45:58.981Z,1000.25
2022-12-29T07:46:59.369Z,1000.26
2022-12-29T07:47:58.902Z,1000.28
2022-12-29T07:48:58.889Z,1000.29
2022-12-29T07:49:58.874Z,1000.24
2022-12-29T07:50:58.871Z,1000.34
2022-12-29T07:51:58.845Z,1000.33
2022-12-29T07:52:58.827Z,1000.23
2022-12-29T07:53:58.814Z,1000.33
2022-12-29T07:54:58.797Z,1000.40
2022-12-29T07:55:58.796Z,1000.41
2022-12-29T07:56:58.788Z,1000.33
2022-12-29T07:57:58.765Z,1000.33
2022-12-29T07:58:58.757Z,1000.32
2022-12-29T07:59:58.748Z,1000.38
2022-12-29T08:00:58.808Z,1000.31
2022-12-29T08:01:58.795Z,1000.36
2022-12-29T08:02:58.697Z,1000.35
2022-12-29T08:03:58.715Z,1000.33
2022-12-29T08:04:58.664Z,1000.37
2022-12-29T08:05:58.668Z,1000.36
2022-12-29T08:06:58.647Z,1000.34
2022-12-29T08:07:58.633Z,1000.35
2022-12-29T08:09:01.607Z,1000.39
2022-12-29T08:09:59.594Z,1000.33
2022-12-29T08:10:58.608Z,1000.29
2022-12-29T08:11:58.580Z,1000.36
2022-12-29T08:12:58.548Z,1000.40
2022-12-29T08:13:58.537Z,1000.44
2022-12-29T08:14:58.533Z,1000.35
2022-12-29T08:15:58.593Z,1000.50
2022-12-29T08:16:58.516Z,1000.49
2022-12-29T08:17:58.493Z,1000.40
2022-12-29T08:18:58.480Z,1000.51
2022-12-29T08:19:58.467Z,1000.44
2022-12-29T08:20:58.481Z,1000.55
2022-12-29T08:21:58.440Z,1000.51
2022-12-29T08:22:58.429Z,1000.49
2022-12-29T08:23:58.401Z,1000.45
2022-12-29T08:24:58.402Z,1000.48
2022-12-29T08:25:58.406Z,1000.51
2022-12-29T08:26:58.373Z,1000.58
2022-12-29T08:27:58.360Z,1000.50
2022-12-29T08:28:58.341Z,1000.60
2022-12-29T08:29:58.324Z,1000.70
2022-12-29T08:30:58.342Z,1000.66
2022-12-29T08:31:58.290Z,1000.70
2022-12-29T08:32:58.288Z,1000.83
2022-12-29T08:33:58.264Z,1000.85
2022-12-29T08:34:58.270Z,1000.83
2022-12-29T08:35:58.271Z,1000.92
2022-12-29T08:36:58.229Z,1000.69
2022-12-29T08:37:58.213Z,1000.76
2022-12-29T08:38:58.202Z,1000.80
2022-12-29T08:39:58.183Z,1000.84
2022-12-29T08:40:58.200Z,1000.85
2022-12-29T08:41:58.162Z,1000.85
2022-12-29T08:42:58.143Z,1000.83
2022-12-29T08:43:58.137Z,1000.91
2022-12-29T08:44:58.125Z,1000.89
2022-12-29T08:45:58.206Z,1000.84
2022-12-29T08:46:58.103Z,1000.95
2022-12-29T08:47:58.079Z,1000.85
2022-12-29T08:48:58.072Z,1000.79
2022-12-29T08:49:58.044Z,1000.88
2022-12-29T08:50:58.051Z,1000.79
2022-12-29T08:51:58.023Z,1000.88
2022-12-29T08:52:58.002Z,1000.94
2022-12-29T08:53:57.999Z,1000.93
2022-12-29T08:54:57.988Z,1000.95
2022-12-29T08:56:02.381Z,1000.92
2022-12-29T08:56:58.995Z,1000.94
2022-12-29T08:57:57.944Z,1000.93
2022-12-29T08:58:57.934Z,1000.96
2022-12-29T08:59:57.914Z,1000.90
2022-12-29T09:00:57.919Z,1000.84
2022-12-29T09:01:57.938Z,1000.94
2022-12-29T09:02:58.087Z,1000.87
2022-12-29T09:04:18.683Z,1000.92
2022-12-29T09:04:58.914Z,1000.99
2022-12-29T09:05:57.844Z,1000.88
2022-12-29T09:06:57.815Z,1000.88
2022-12-29T09:07:57.805Z,1000.91
2022-12-29T09:08:57.796Z,1000.97
2022-12-29T09:09:57.765Z,1000.97
2022-12-29T09:10:57.777Z,1001.02
2022-12-29T09:11:57.754Z,1001.02
2022-12-29T09:12:57.739Z,1001.04
2022-12-29T09:13:57.717Z,1001.09
2022-12-29T09:14:57.708Z,1001.06
2022-12-29T09:15:57.720Z,1001.03
2022-12-29T09:16:57.688Z,1001.08
2022-12-29T09:17:57.669Z,1001.04
2022-12-29T09:18:57.663Z,1001.03
2022-12-29T09:19:57.634Z,1001.10
2022-12-29T09:20:57.650Z,1001.06
2022-12-29T09:21:57.630Z,1001.12
2022-12-29T09:22:57.625Z,1001.18
2022-12-29T09:23:57.607Z,1001.13
2022-12-29T09:24:57.606Z,1001.17
2022-12-29T09:25:57.567Z,1001.21
2022-12-29T09:26:57.546Z,1001.22
2022-12-29T09:27:57.528Z,1001.17
2022-12-29T09:28:57.517Z,1001.19
2022-12-29T09:29:57.498Z,1001.13
2022-12-29T09:30:57.610Z,1001.19
2022-12-29T09:31:57.484Z,1001.14
2022-12-29T09:32:57.478Z,1001.15
2022-12-29T09:33:57.460Z,1001.15
2022-12-29T09:34:57.438Z,1001.19
2022-12-29T09:35:57.453Z,1001.21
2022-12-29T09:36:57.412Z,1001.24
2022-12-29T09:37:57.413Z,1001.19
2022-12-29T09:38:57.390Z,1001.24
2022-12-29T09:39:57.365Z,1001.18
2022-12-29T09:40:57.368Z,1001.19
2022-12-29T09:41:57.359Z,1001.23
2022-12-29T09:42:57.329Z,1001.22
2022-12-29T09:43:57.314Z,1001.26
2022-12-29T09:44:57.391Z,1001.27
2022-12-29T09:45:57.302Z,1001.21
2022-12-29T09:46:57.413Z,1001.25
2022-12-29T09:47:57.301Z,1001.18
2022-12-29T09:48:57.248Z,1001.18
2022-12-29T09:49:57.223Z,1001.13
2022-12-29T09:50:57.241Z,1001.16
2022-12-29T09:51:57.199Z,1001.18
2022-12-29T09:52:57.186Z,1001.22
2022-12-29T09:53:57.172Z,1001.25
2022-12-29T09:55:02.354Z,1001.18
2022-12-29T09:55:58.178Z,1001.36
2022-12-29T09:56:57.134Z,1001.18
2022-12-29T09:57:57.125Z,1001.28
2022-12-29T09:58:57.103Z,1001.32
2022-12-29T09:59:57.087Z,1001.15
2022-12-29T10:00:57.128Z,1001.18
2022-12-29T10:01:57.134Z,1001.26
2022-12-29T10:02:57.148Z,1001.17
2022-12-29T10:03:57.034Z,1001.17
2022-12-29T10:04:57.027Z,1001.19
2022-12-29T10:05:57.024Z,1001.18
2022-12-29T10:07:28.177Z,1001.19
2022-12-29T10:07:57.992Z,1001.37
2022-12-29T10:08:56.986Z,1001.17
2022-12-29T10:09:56.954Z,1001.20
2022-12-29T10:10:56.964Z,1001.15
2022-12-29T10:11:56.932Z,1001.17
2022-12-29T10:12:56.943Z,1001.22
2022-12-29T10:13:56.894Z,1001.17
2022-12-29T10:14:56.890Z,1001.06
2022-12-29T10:15:56.933Z,1001.13
2022-12-29T10:16:56.880Z,1000.96
2022-12-29T10:17:56.853Z,1001.22
2022-12-29T10:18:56.849Z,1001.17
2022-12-29T10:19:56.830Z,1001.11
2022-12-29T10:20:56.833Z,1001.22
2022-12-29T10:21:56.808Z,1001.26
2022-12-29T10:22:56.789Z,1001.24
2022-12-29T10:23:56.770Z,1001.23
2022-12-29T10:24:56.754Z,1001.29
2022-12-29T10:25:56.747Z,1001.37
2022-12-29T10:26:56.736Z,1001.30
2022-12-29T10:27:56.731Z,1001.32
2022-12-29T10:28:56.699Z,1001.24
2022-12-29T10:29:56.687Z,1001.23
2022-12-29T10:30:56.698Z,1001.17
2022-12-29T10:31:56.693Z,1001.35
2022-12-29T10:32:56.646Z,1001.29
2022-12-29T10:33:56.629Z,1001.23
2022-12-29T10:34:56.638Z,1001.29
2022-12-29T10:35:56.616Z,1001.28
2022-12-29T10:36:56.609Z,1001.36
2022-12-29T10:37:56.602Z,1001.30
2022-12-29T10:38:56.580Z,1001.46
2022-12-29T10:39:56.546Z,1001.37
2022-12-29T10:40:56.558Z,1001.37
2022-12-29T10:41:56.531Z,1001.34
2022-12-29T10:42:56.512Z,1001.43
2022-12-29T10:43:56.490Z,1001.46
2022-12-29T10:44:56.495Z,1001.32
2022-12-29T10:45:56.526Z,1001.46
2022-12-29T10:46:56.474Z,1001.41
2022-12-29T10:47:56.444Z,1001.42
2022-12-29T10:48:56.424Z,1001.49
2022-12-29T10:49:56.412Z,1001.51
2022-12-29T10:51:01.590Z,1001.49
2022-12-29T10:51:57.386Z,1001.48
2022-12-29T10:52:56.371Z,1001.41
2022-12-29T10:53:56.361Z,1001.36
2022-12-29T10:54:56.342Z,1001.45
2022-12-29T10:55:56.360Z,1001.53
2022-12-29T10:56:56.321Z,1001.43
2022-12-29T10:57:56.313Z,1001.62
2022-12-29T10:58:56.282Z,1001.48
2022-12-29T10:59:56.282Z,1001.69
2022-12-29T11:00:56.340Z,1001.55
2022-12-29T11:01:56.609Z,1001.63
2022-12-29T11:02:56.519Z,1001.62
2022-12-29T11:03:56.223Z,1001.64
2022-12-29T11:04:56.216Z,1001.60
2022-12-29T11:05:56.224Z,1001.67
2022-12-29T11:06:56.183Z,1001.65
2022-12-29T11:07:56.175Z,1001.70
2022-12-29T11:08:56.153Z,1001.75
2022-12-29T11:09:56.149Z,1001.70
2022-12-29T11:10:56.144Z,1001.65
2022-12-29T11:11:56.114Z,1001.47
2022-12-29T11:12:56.123Z,1001.70
2022-12-29T11:13:56.100Z,1001.72
2022-12-29T11:14:56.066Z,1001.77
2022-12-29T11:15:56.074Z,1001.88
2022-12-29T11:16:56.086Z,1001.83
2022-12-29T11:17:56.047Z,1001.84
2022-12-29T11:18:56.015Z,1001.74
2022-12-29T11:19:56.016Z,1001.90
2022-12-29T11:20:56.013Z,1001.71
2022-12-29T11:21:55.979Z,1001.85
2022-12-29T11:22:55.965Z,1001.92
2022-12-29T11:23:55.956Z,1001.94
2022-12-29T11:24:55.940Z,1001.94
2022-12-29T11:25:55.950Z,1002.05
2022-12-29T11:26:55.909Z,1002.12
2022-12-29T11:27:55.899Z,1001.92
2022-12-29T11:28:55.890Z,1002.00
2022-12-29T11:29:55.877Z,1002.08
2022-12-29T11:30:55.878Z,1002.05
2022-12-29T11:31:55.956Z,1002.09
2022-12-29T11:32:55.826Z,1002.04
2022-12-29T11:33:55.819Z,1002.02
2022-12-29T11:34:55.810Z,1001.98
2022-12-29T11:35:55.798Z,1001.91
2022-12-29T11:36:55.773Z,1002.03
2022-12-29T11:37:55.777Z,1002.05
2022-12-29T11:38:55.760Z,1002.12
2022-12-29T11:39:55.737Z,1001.96
2022-12-29T11:40:55.729Z,1002.08
2022-12-29T11:41:55.701Z,1001.99
2022-12-29T11:42:55.690Z,1002.12
2022-12-29T11:43:55.677Z,1002.01
2022-12-29T11:44:55.663Z,1002.10
2022-12-29T11:45:55.704Z,1002.05
2022-12-29T11:46:55.641Z,1002.11
2022-12-29T11:47:55.631Z,1002.10
2022-12-29T11:50:06.114Z,1002.14
2022-12-29T11:51:05.428Z,1002.18
2022-12-29T11:52:05.393Z,1002.18
2022-12-29T11:53:05.387Z,1002.17
2022-12-29T11:54:05.363Z,1002.38
2022-12-29T11:55:05.369Z,1002.17
2022-12-29T11:56:05.354Z,1002.28
2022-12-29T11:57:05.343Z,1002.13
2022-12-29T11:58:05.333Z,1002.20
2022-12-29T11:59:05.302Z,1002.09
2022-12-29T12:00:05.300Z,1002.15
2022-12-29T12:01:05.299Z,1002.20
2022-12-29T12:02:05.414Z,1002.28
2022-12-29T12:03:05.334Z,1002.36
2022-12-29T12:04:05.373Z,1002.29
2022-12-29T12:05:05.224Z,1002.27
2022-12-29T12:06:05.222Z,1002.29
2022-12-29T12:07:05.189Z,1002.31
2022-12-29T12:08:05.183Z,1002.31
2022-12-29T12:09:05.169Z,1002.24
2022-12-29T12:10:07.806Z,1002.24
2022-12-29T12:11:05.171Z,1002.31
2022-12-29T12:12:05.121Z,1002.26
2022-12-29T12:13:05.111Z,1002.39
2022-12-29T12:14:05.098Z,1002.28
2022-12-29T12:15:05.092Z,1002.30
2022-12-29T12:16:05.154Z,1002.26
2022-12-29T12:17:05.076Z,1002.30
2022-12-29T12:18:05.048Z,1002.32
2022-12-29T12:19:05.044Z,1002.40